Time;durP1;ratioP1;P1;durP2;ratioP2;P2;SDS_P1;SDS_P2;PMS_P1;PMS_P2;Temp;Humidity;BMP_temperature;BMP_pressure;BME280_temperature;BME280_humidity;BME280_pressure;Samples;Min_cycle;Max_cycle;Signal;HPM_P1;HPM_P2
2023/08/07 00:00:44;;;;;;;3.87;1.20;;;;;;;19.26;100.00;100731.91;2508170;23;20156;-69
2023/08/07 00:01:44;;;;;;;5.13;0.93;;;;;;;19.27;100.00;100730.66;2508401;23;20235;-69
2023/08/07 00:02:45;;;;;;;1.90;0.97;;;;;;;18.89;100.00;100686.63;2508334;23;20583;-68
2023/08/07 00:03:45;;;;;;;4.23;1.20;;;;;;;19.19;100.00;100727.44;2508820;23;20167;-69
2023/08/07 00:04:46;;;;;;;2.60;0.90;;;;;;;19.19;100.00;100724.63;2508936;23;20550;-69
2023/08/07 00:05:47;;;;;;;2.37;1.07;;;;;;;18.92;100.00;100687.69;2508881;23;20156;-68
2023/08/07 00:06:47;;;;;;;1.40;0.90;;;;;;;19.18;100.00;100727.94;2508802;23;20164;-69
2023/08/07 00:07:47;;;;;;;5.50;1.00;;;;;;;19.11;100.00;100733.97;2508582;23;20388;-69
2023/08/07 00:08:48;;;;;;;3.03;1.00;;;;;;;18.85;100.00;100704.97;2508840;23;20211;-68
2023/08/07 00:09:48;;;;;;;2.73;0.90;;;;;;;19.11;100.00;100748.00;2508991;23;20161;-69
2023/08/07 00:10:49;;;;;;;1.40;1.10;;;;;;;19.06;100.00;100743.06;2508220;23;20665;-68
2023/08/07 00:11:49;;;;;;;1.47;0.80;;;;;;;19.03;100.00;100749.69;2508785;23;20155;-69
2023/08/07 00:12:50;;;;;;;2.30;1.20;;;;;;;19.08;100.00;100752.56;2508550;23;20188;-69
2023/08/07 00:13:50;;;;;;;3.47;1.13;;;;;;;19.10;100.00;100752.88;2508954;23;20185;-69
2023/08/07 00:14:51;;;;;;;3.00;1.50;;;;;;;19.08;100.00;100749.00;2508585;23;20152;-69
2023/08/07 00:15:51;;;;;;;2.80;0.87;;;;;;;19.03;100.00;100753.25;2508577;23;20574;-68
2023/08/07 00:16:52;;;;;;;4.00;1.23;;;;;;;19.03;100.00;100755.31;2508819;23;20175;-68
2023/08/07 00:17:52;;;;;;;2.23;1.20;;;;;;;19.02;100.00;100746.09;2508445;23;20234;-68
2023/08/07 00:18:55;;;;;;;2.20;1.33;;;;;;;19.02;100.00;100750.91;2508899;23;20159;-69
2023/08/07 00:19:56;;;;;;;1.53;1.10;;;;;;;19.02;100.00;100750.91;2508969;23;20183;-69
2023/08/07 00:20:56;;;;;;;2.57;1.40;;;;;;;19.07;100.00;100758.66;2508106;23;20375;-69
2023/08/07 00:21:57;;;;;;;3.97;1.33;;;;;;;18.96;100.00;100736.81;2509091;23;20162;-68
2023/08/07 00:22:57;;;;;;;3.77;1.40;;;;;;;19.02;100.00;100746.09;2508574;23;20162;-68
2023/08/07 00:23:58;;;;;;;2.37;1.60;;;;;;;18.97;100.00;100752.38;2508885;23;20158;-68
2023/08/07 00:24:58;;;;;;;1.90;1.50;;;;;;;18.94;100.00;100749.78;2508836;23;20427;-69
2023/08/07 00:25:58;;;;;;;4.40;2.20;;;;;;;18.96;100.00;100750.06;2508903;23;20157;-68
2023/08/07 00:26:59;;;;;;;2.17;1.60;;;;;;;18.99;100.00;100757.53;2508642;23;20160;-68
2023/08/07 00:27:59;;;;;;;4.20;1.80;;;;;;;18.95;100.00;100757.72;2508556;23;20152;-68
2023/08/07 00:29:00;;;;;;;4.10;1.90;;;;;;;18.13;100.00;100632.81;2508730;23;20633;-68
2023/08/07 00:30:00;;;;;;;3.80;1.90;;;;;;;18.90;100.00;100757.63;2508282;23;20475;-68
2023/08/07 00:31:01;;;;;;;2.20;1.70;;;;;;;18.89;100.00;100758.88;2508022;23;20180;-69
2023/08/07 00:32:01;;;;;;;2.20;1.90;;;;;;;18.86;100.00;100762.66;2496136;23;20281;-68
2023/08/07 00:33:02;;;;;;;5.07;1.87;;;;;;;18.43;100.00;100696.84;2495862;23;20176;-68
2023/08/07 00:34:03;;;;;;;3.67;1.83;;;;;;;18.88;100.00;100762.97;2508774;23;20218;-68
2023/08/07 00:35:05;;;;;;;3.37;2.17;;;;;;;18.90;100.00;100766.84;2495976;23;20443;-68
2023/08/07 00:36:06;;;;;;;2.50;2.10;;;;;;;18.88;100.00;100751.72;2496297;23;20859;-69
2023/08/07 00:37:06;;;;;;;2.90;1.97;;;;;;;18.82;100.00;100751.63;2508493;23;20419;-68
2023/08/07 00:38:07;;;;;;;2.97;2.07;;;;;;;18.80;100.00;100756.97;2508654;23;20158;-68
2023/08/07 00:39:08;;;;;;;2.90;2.13;;;;;;;18.33;100.00;100686.25;2508690;23;20185;-68
2023/08/07 00:40:09;;;;;;;3.30;2.40;;;;;;;18.84;100.00;100757.53;2508436;23;20155;-68
2023/08/07 00:41:09;;;;;;;3.13;2.43;;;;;;;18.83;100.00;100767.22;2508681;23;20388;-69
2023/08/07 00:42:10;;;;;;;2.80;2.50;;;;;;;18.83;100.00;100769.25;2508760;23;20156;-68
2023/08/07 00:43:10;;;;;;;2.47;2.27;;;;;;;17.75;100.00;100596.44;2508590;23;20160;-68
2023/08/07 00:44:11;;;;;;;3.00;2.70;;;;;;;18.86;100.00;100771.88;2508016;23;20150;-68
2023/08/07 00:45:11;;;;;;;3.20;2.90;;;;;;;18.86;100.00;100780.28;2508850;23;20229;-69
2023/08/07 00:46:12;;;;;;;6.47;3.00;;;;;;;18.87;100.00;100772.63;2508656;23;20297;-69
2023/08/07 00:47:12;;;;;;;5.47;3.03;;;;;;;18.90;100.00;100782.91;2508474;23;20207;-69
2023/08/07 00:48:14;;;;;;;5.77;3.20;;;;;;;18.12;100.00;100659.31;2508587;23;20171;-68
2023/08/07 00:49:17;;;;;;;3.30;2.90;;;;;;;18.89;100.00;100782.13;2508963;23;20147;-68
2023/08/07 00:50:17;;;;;;;6.93;3.17;;;;;;;18.81;100.00;100769.75;2508229;23;20869;-69
2023/08/07 00:51:18;;;;;;;3.53;3.13;;;;;;;17.95;100.00;100644.97;2507469;23;20808;-68
2023/08/07 00:52:18;;;;;;;3.50;2.87;;;;;;;18.92;100.00;100792.38;2508729;23;20230;-68
2023/08/07 00:53:19;;;;;;;3.50;3.17;;;;;;;18.90;100.00;100794.91;2508350;23;20176;-68
2023/08/07 00:54:20;;;;;;;4.47;3.30;;;;;;;18.93;100.00;100793.94;2508652;23;20570;-68
2023/08/07 00:55:21;;;;;;;4.17;3.40;;;;;;;18.85;100.00;100780.78;2508718;23;20625;-68
2023/08/07 00:56:22;;;;;;;4.40;3.07;;;;;;;18.98;100.00;100790.44;2508624;23;20489;-69
2023/08/07 00:57:24;;;;;;;4.67;3.30;;;;;;;18.97;100.00;100791.72;2508397;23;20634;-68
2023/08/07 00:58:24;;;;;;;5.57;3.40;;;;;;;18.80;100.00;100762.59;2508292;23;20887;-69
2023/08/07 00:59:25;;;;;;;4.43;3.90;;;;;;;19.04;100.00;100796.16;2508872;23;20739;-69
2023/08/07 01:00:28;;;;;;;7.03;3.50;;;;;;;18.98;100.00;100800.91;2508005;23;20198;-68
2023/08/07 01:01:29;;;;;;;5.90;3.80;;;;;;;19.05;100.00;100787.25;2508845;23;20239;-69
2023/08/07 01:02:29;;;;;;;4.53;3.80;;;;;;;19.05;100.00;100792.88;2508566;23;20885;-69
2023/08/07 01:03:29;;;;;;;3.80;3.50;;;;;;;18.27;100.00;100672.06;2508536;23;20155;-68
2023/08/07 01:04:31;;;;;;;4.33;3.60;;;;;;;19.08;100.00;100788.31;2508610;23;20155;-68
2023/08/07 01:05:31;;;;;;;5.23;3.40;;;;;;;19.10;100.00;100794.22;2508885;23;20163;-69
2023/08/07 01:06:32;;;;;;;4.70;3.80;;;;;;;19.10;100.00;100792.19;2508526;23;20395;-69
2023/08/07 01:07:32;;;;;;;4.20;3.23;;;;;;;19.09;100.00;100801.09;2508427;23;20451;-68
2023/08/07 01:08:33;;;;;;;5.63;3.60;;;;;;;19.10;100.00;100805.44;2508815;23;20595;-69
2023/08/07 01:09:33;;;;;;;6.20;4.30;;;;;;;19.09;100.00;100803.91;2508737;23;20616;-69
2023/08/07 01:10:43;;;;;;;5.47;4.20;;;;;;;18.93;100.00;100805.16;2507942;23;20215;-68
2023/08/07 01:12:12;;;;;;;5.00;4.07;;;;;;;18.20;100.00;100697.72;2508604;23;20207;-69
2023/08/07 01:13:27;;;;;;;5.87;4.00;;;;;;;18.96;100.00;100815.44;2508221;23;20374;-68
2023/08/07 01:15:03;;;;;;;4.97;4.47;;;;;;;18.96;100.00;100817.47;2508841;23;20383;-69
2023/08/07 01:16:33;;;;;;;5.97;4.27;;;;;;;18.92;100.00;100822.50;2509622;23;20376;-69
2023/08/07 01:17:34;;;;;;;6.63;4.37;;;;;;;18.94;100.00;100823.56;2509167;23;20458;-68
2023/08/07 01:18:36;;;;;;;4.73;4.13;;;;;;;18.89;100.00;100827.03;2509357;23;20376;-68
2023/08/07 01:19:38;;;;;;;5.67;4.00;;;;;;;18.93;100.00;100826.88;2509726;23;20160;-69
2023/08/07 01:20:38;;;;;;;5.07;4.53;;;;;;;18.95;100.00;100825.13;2508732;23;20384;-69
2023/08/07 01:21:38;;;;;;;7.43;4.63;;;;;;;18.01;100.00;100675.94;2509608;23;20418;-69
2023/08/07 01:22:39;;;;;;;5.47;4.90;;;;;;;18.98;100.00;100823.38;2509707;23;20180;-69
2023/08/07 01:23:40;;;;;;;5.50;4.37;;;;;;;18.95;100.00;100827.94;2509346;23;20183;-69
2023/08/07 01:24:43;;;;;;;5.30;4.80;;;;;;;18.97;100.00;100821.81;2509318;23;20188;-69
2023/08/07 01:25:43;;;;;;;5.57;4.60;;;;;;;18.89;100.00;100820.66;2509575;23;20673;-69
2023/08/07 01:26:46;;;;;;;6.47;4.60;;;;;;;18.91;100.00;100816.13;2509403;23;20842;-69
2023/08/07 01:27:55;;;;;;;7.03;4.60;;;;;;;18.20;100.00;100706.13;2508517;23;20191;-69
2023/08/07 01:29:10;;;;;;;4.80;4.40;;;;;;;18.94;100.00;100809.50;2509611;23;20899;-69
2023/08/07 01:30:29;;;;;;;7.53;4.93;;;;;;;18.93;100.00;100816.41;2509126;23;20368;-68
2023/08/07 01:31:33;;;;;;;5.17;4.67;;;;;;;18.90;100.00;100820.19;2509294;23;20426;-68
2023/08/07 01:32:36;;;;;;;4.73;4.30;;;;;;;18.90;100.00;100813.78;2509422;23;20478;-69
2023/08/07 01:33:42;;;;;;;5.43;4.57;;;;;;;18.85;100.00;100815.25;2509497;23;20374;-69
2023/08/07 01:34:45;;;;;;;6.30;5.07;;;;;;;18.81;100.00;100803.44;2509066;23;20394;-68
2023/08/07 01:35:55;;;;;;;7.23;5.00;;;;;;;18.80;100.00;100813.13;2509412;23;20924;-68
2023/08/07 01:36:59;;;;;;;5.10;4.60;;;;;;;18.75;100.00;100798.97;2509476;23;20714;-69
2023/08/07 01:38:01;;;;;;;5.47;4.60;;;;;;;18.70;100.00;100808.06;2509052;23;20380;-68
2023/08/07 01:39:03;;;;;;;8.00;5.00;;;;;;;18.63;100.00;100794.44;2509358;23;20541;-68
2023/08/07 01:40:06;;;;;;;5.83;4.93;;;;;;;18.68;100.00;100802.19;2509005;23;20384;-68
2023/08/07 01:41:06;;;;;;;5.40;4.50;;;;;;;18.44;100.00;100771.38;2509207;23;20812;-68
2023/08/07 01:42:07;;;;;;;6.87;5.07;;;;;;;18.68;100.00;100810.59;2508399;23;20382;-68
2023/08/07 01:43:08;;;;;;;6.37;4.83;;;;;;;18.67;100.00;100812.63;2509351;23;20238;-69
2023/08/07 01:44:09;;;;;;;5.27;4.77;;;;;;;18.68;100.00;100811.34;2509301;23;20152;-69
2023/08/07 01:45:09;;;;;;;5.47;4.97;;;;;;;18.09;100.00;100725.56;2509386;23;20174;-69
2023/08/07 01:46:10;;;;;;;6.20;5.03;;;;;;;18.70;100.00;100813.69;2509542;23;20151;-68
2023/08/07 01:47:11;;;;;;;5.87;5.37;;;;;;;18.71;100.00;100804.78;2509197;23;20160;-69
2023/08/07 01:48:12;;;;;;;9.00;5.23;;;;;;;18.69;100.00;100815.75;2509381;23;20384;-69
2023/08/07 01:49:12;;;;;;;6.93;5.10;;;;;;;18.71;100.00;100812.41;2509491;23;20238;-68
2023/08/07 01:50:13;;;;;;;5.43;5.03;;;;;;;18.64;100.00;100805.19;2508955;23;20176;-69
2023/08/07 01:51:13;;;;;;;5.30;4.80;;;;;;;18.72;100.00;100820.38;2509028;23;20179;-69
2023/08/07 01:52:14;;;;;;;5.33;4.83;;;;;;;18.74;100.00;100815.06;2509344;23;20152;-68
2023/08/07 01:53:14;;;;;;;7.20;4.70;;;;;;;18.73;100.00;100810.69;2509096;23;20152;-69
2023/08/07 01:54:15;;;;;;;5.70;5.00;;;;;;;18.72;100.00;100814.00;2509111;23;20143;-68
2023/08/07 01:55:16;;;;;;;6.47;4.97;;;;;;;18.69;100.00;100809.34;2509380;23;20155;-69
2023/08/07 01:56:17;;;;;;;11.10;5.10;;;;;;;18.68;100.00;100816.97;2508726;23;20581;-69
2023/08/07 01:57:17;;;;;;;5.67;4.77;;;;;;;18.69;100.00;100809.34;2508941;23;20381;-68
2023/08/07 01:58:17;;;;;;;7.67;5.10;;;;;;;18.68;100.00;100811.34;2509458;23;20148;-68
2023/08/07 01:59:18;;;;;;;6.07;5.00;;;;;;;18.67;100.00;100806.25;2509496;23;20180;-69
2023/08/07 02:00:19;;;;;;;5.63;5.03;;;;;;;17.91;100.00;100700.47;2508893;23;20152;-69
2023/08/07 02:01:19;;;;;;;5.80;4.87;;;;;;;18.62;100.00;100813.28;2509250;23;20152;-68
2023/08/07 02:02:20;;;;;;;5.77;4.90;;;;;;;18.60;100.00;100812.22;2509400;23;20380;-68
2023/08/07 02:03:20;;;;;;;6.23;5.63;;;;;;;18.57;100.00;100811.16;2509335;23;20183;-68
2023/08/07 02:04:21;;;;;;;5.80;5.20;;;;;;;18.02;100.00;100727.97;2509147;23;20247;-68
2023/08/07 02:05:21;;;;;;;5.87;5.13;;;;;;;18.58;100.00;100814.75;2509578;23;20239;-68
2023/08/07 02:06:22;;;;;;;5.03;4.50;;;;;;;18.49;100.00;100800.78;2509149;23;20165;-67
2023/08/07 02:07:22;;;;;;;5.00;4.60;;;;;;;18.45;100.00;100806.59;2509012;23;20164;-69
2023/08/07 02:08:23;;;;;;;5.20;4.70;;;;;;;18.45;100.00;100801.00;2509231;23;20180;-68
2023/08/07 02:09:23;;;;;;;5.60;4.90;;;;;;;18.45;100.00;100795.38;2509470;23;20153;-68
2023/08/07 02:10:23;;;;;;;4.87;4.47;;;;;;;18.40;100.00;100801.66;2508295;23;20161;-68
2023/08/07 02:11:24;;;;;;;5.67;4.87;;;;;;;18.29;100.00;100790.19;2509322;23;20180;-68
2023/08/07 02:12:26;;;;;;;7.63;4.70;;;;;;;18.36;100.00;100789.84;2509237;23;20151;-68
2023/08/07 02:13:26;;;;;;;5.50;4.60;;;;;;;18.24;100.00;100790.88;2509426;23;20178;-68
2023/08/07 02:14:27;;;;;;;6.83;4.70;;;;;;;18.30;100.00;100808.56;2508971;23;20380;-68
2023/08/07 02:15:27;;;;;;;5.10;4.70;;;;;;;18.22;100.00;100801.78;2509291;23;20209;-68
2023/08/07 02:16:28;;;;;;;4.87;4.40;;;;;;;18.24;100.00;100816.13;2509427;23;20610;-68
2023/08/07 02:17:31;;;;;;;5.03;4.63;;;;;;;18.22;100.00;100801.78;2508958;23;20177;-68
2023/08/07 02:18:31;;;;;;;5.17;4.67;;;;;;;18.21;100.00;100808.66;2509239;23;20298;-68
2023/08/07 02:19:32;;;;;;;4.80;4.40;;;;;;;17.87;100.00;100758.78;2509456;23;20872;-68
2023/08/07 02:20:32;;;;;;;5.13;4.70;;;;;;;17.98;100.00;100776.56;2508659;23;20215;-68
2023/08/07 02:21:33;;;;;;;5.07;4.33;;;;;;;18.11;100.00;100809.22;2509320;23;20155;-68
2023/08/07 02:22:33;;;;;;;6.43;4.77;;;;;;;18.05;100.00;100806.28;2509268;23;20180;-69
2023/08/07 02:23:34;;;;;;;5.20;4.70;;;;;;;18.08;100.00;100811.72;2509312;23;20593;-68
2023/08/07 02:24:35;;;;;;;5.07;4.67;;;;;;;18.13;100.00;100817.91;2508841;23;20165;-68
2023/08/07 02:25:35;;;;;;;6.07;4.53;;;;;;;17.84;100.00;100773.72;2508841;23;20534;-68
2023/08/07 02:26:35;;;;;;;5.43;4.87;;;;;;;17.67;100.00;100753.75;2509126;23;20156;-68
2023/08/07 02:27:36;;;;;;;5.80;4.90;;;;;;;18.13;100.00;100813.84;2508890;23;20185;-68
2023/08/07 02:28:36;;;;;;;5.17;4.73;;;;;;;18.11;100.00;100821.19;2496668;23;20159;-68
2023/08/07 02:29:37;;;;;;;5.03;4.53;;;;;;;18.15;100.00;100810.56;2496715;23;20497;-68
2023/08/07 02:30:37;;;;;;;7.17;4.47;;;;;;;17.72;100.00;100746.75;2508427;23;20483;-68
2023/08/07 02:31:37;;;;;;;8.17;4.90;;;;;;;17.67;100.00;100755.81;2509218;23;20153;-68
2023/08/07 02:32:38;;;;;;;5.10;4.60;;;;;;;18.11;100.00;100814.81;2509152;23;20156;-68
2023/08/07 02:33:38;;;;;;;5.47;4.80;;;;;;;18.12;100.00;100810.75;2509185;23;20246;-67
2023/08/07 02:34:39;;;;;;;6.63;5.00;;;;;;;17.09;100.00;100651.88;2508505;23;20220;-68
2023/08/07 02:35:39;;;;;;;6.67;4.60;;;;;;;18.06;100.00;100812.69;2508994;23;20180;-68
2023/08/07 02:36:39;;;;;;;8.83;5.20;;;;;;;18.08;100.00;100806.09;2509182;23;20155;-68
2023/08/07 02:37:40;;;;;;;5.77;5.10;;;;;;;18.08;100.00;100808.16;2508901;23;20166;-68
2023/08/07 02:38:40;;;;;;;6.23;4.63;;;;;;;18.13;100.00;100808.25;2508324;23;20239;-68
2023/08/07 02:39:41;;;;;;;4.93;4.50;;;;;;;18.13;100.00;100811.03;2509254;23;20152;-68
2023/08/07 02:40:41;;;;;;;7.00;4.70;;;;;;;18.16;100.00;100812.13;2508733;23;20156;-68
2023/08/07 02:41:41;;;;;;;4.70;4.20;;;;;;;18.13;100.00;100806.69;2509307;23;20148;-68
2023/08/07 02:42:42;;;;;;;4.47;4.07;;;;;;;18.17;100.00;100811.66;2496383;23;20172;-69
2023/08/07 02:43:43;;;;;;;5.07;4.60;;;;;;;18.23;100.00;100811.78;2496691;23;20510;-68
2023/08/07 02:44:43;;;;;;;5.10;4.60;;;;;;;18.21;100.00;100814.25;2509285;23;20156;-68
2023/08/07 02:45:44;;;;;;;5.43;4.67;;;;;;;18.23;100.00;100808.97;2508999;23;20152;-68
2023/08/07 02:46:44;;;;;;;6.07;4.43;;;;;;;18.17;100.00;100800.41;2509157;23;20238;-69
2023/08/07 02:47:45;;;;;;;5.37;4.40;;;;;;;18.19;100.00;100805.56;2508934;23;20244;-68
2023/08/07 02:48:45;;;;;;;4.77;4.37;;;;;;;18.21;100.00;100808.66;2509173;23;20601;-69
2023/08/07 02:49:45;;;;;;;4.80;4.30;;;;;;;17.46;100.00;100689.63;2509304;23;20162;-68
2023/08/07 02:50:46;;;;;;;5.43;4.00;;;;;;;17.68;100.00;100721.66;2508314;23;20156;-68
2023/08/07 02:51:46;;;;;;;5.73;3.87;;;;;;;18.17;100.00;100803.22;2509066;23;20258;-69
2023/08/07 02:52:47;;;;;;;7.97;4.20;;;;;;;18.19;100.00;100799.94;2509050;23;20161;-67
2023/08/07 02:53:47;;;;;;;6.67;4.13;;;;;;;18.22;100.00;100801.03;2508225;23;20393;-69
2023/08/07 02:54:48;;;;;;;4.70;3.63;;;;;;;18.24;100.00;100800.03;2508890;23;20158;-68
2023/08/07 02:55:48;;;;;;;6.47;3.97;;;;;;;18.23;100.00;100803.34;2509075;23;20161;-68
2023/08/07 02:56:48;;;;;;;5.87;4.03;;;;;;;18.26;100.00;100799.56;2509091;23;20619;-68
2023/08/07 02:57:49;;;;;;;4.60;3.73;;;;;;;18.28;100.00;100806.25;2508815;23;20503;-68
2023/08/07 02:58:49;;;;;;;5.20;3.90;;;;;;;18.23;100.00;100801.31;2509123;23;20163;-68
2023/08/07 02:59:50;;;;;;;6.73;4.20;;;;;;;18.21;100.00;100805.84;2509192;23;20164;-68
2023/08/07 03:00:50;;;;;;;5.50;3.70;;;;;;;18.16;100.00;100800.91;2508409;23;20152;-68
2023/08/07 03:01:51;;;;;;;4.97;3.70;;;;;;;18.22;100.00;100803.81;2509505;23;20156;-68
2023/08/07 03:02:51;;;;;;;4.30;3.90;;;;;;;18.25;100.00;100803.63;2509018;23;20630;-69
2023/08/07 03:03:51;;;;;;;4.10;3.80;;;;;;;18.23;100.00;100805.38;2509107;23;20604;-68
2023/08/07 03:04:52;;;;;;;4.87;3.80;;;;;;;18.22;100.00;100815.03;2509169;23;20240;-69
2023/08/07 03:05:52;;;;;;;4.53;3.80;;;;;;;18.23;100.00;100813.78;2508980;23;20156;-68
2023/08/07 03:06:53;;;;;;;4.00;3.70;;;;;;;18.23;100.00;100806.16;2509171;23;20605;-68
2023/08/07 03:07:53;;;;;;;4.10;3.63;;;;;;;18.20;100.00;100815.50;2508364;23;20156;-68
2023/08/07 03:08:53;;;;;;;4.10;3.70;;;;;;;18.20;100.00;100818.31;2509122;23;20180;-68
2023/08/07 03:09:54;;;;;;;5.60;3.83;;;;;;;18.23;100.00;100813.78;2509260;23;20165;-69
2023/08/07 03:10:56;;;;;;;4.87;3.30;;;;;;;18.19;100.00;100813.97;2508370;23;20187;-68
2023/08/07 03:12:02;;;;;;;4.30;3.70;;;;;;;18.13;100.00;100818.69;2509095;23;20242;-68
2023/08/07 03:13:03;;;;;;;4.43;3.90;;;;;;;18.16;100.00;100819.78;2508997;23;20429;-68
2023/08/07 03:14:03;;;;;;;5.07;3.50;;;;;;;17.79;100.00;100780.00;2509011;23;20435;-68
2023/08/07 03:15:05;;;;;;;4.50;3.67;;;;;;;18.16;100.00;100828.94;2508803;23;20153;-68
2023/08/07 03:16:07;;;;;;;5.33;3.87;;;;;;;18.17;100.00;100820.06;2496142;23;20171;-69
2023/08/07 03:17:07;;;;;;;5.70;3.47;;;;;;;17.72;100.00;100763.56;2496368;23;20383;-68
2023/08/07 03:18:08;;;;;;;4.50;3.73;;;;;;;18.19;100.00;100828.75;2508927;23;20416;-68
2023/08/07 03:19:08;;;;;;;4.83;3.70;;;;;;;18.09;100.00;100824.47;2509088;23;20149;-68
2023/08/07 03:20:09;;;;;;;6.90;3.50;;;;;;;18.12;100.00;100828.34;2508825;23;20171;-68
2023/08/07 03:21:10;;;;;;;4.03;3.60;;;;;;;17.49;100.00;100730.69;2508813;23;20152;-69
2023/08/07 03:22:10;;;;;;;3.87;3.47;;;;;;;18.23;100.00;100833.41;2508333;23;20153;-69
2023/08/07 03:23:10;;;;;;;5.30;3.40;;;;;;;17.92;100.00;100791.75;2509143;23;20177;-69
2023/08/07 03:24:11;;;;;;;3.93;3.53;;;;;;;18.27;100.00;100846.00;2509083;23;20195;-68
2023/08/07 03:25:11;;;;;;;5.47;3.40;;;;;;;18.30;100.00;100842.25;2509082;23;20230;-69
2023/08/07 03:26:12;;;;;;;3.87;3.47;;;;;;;18.28;100.00;100842.72;2508803;23;20163;-69
2023/08/07 03:27:13;;;;;;;3.97;3.07;;;;;;;18.29;100.00;100849.13;2508556;23;20697;-68
2023/08/07 03:28:13;;;;;;;3.83;2.97;;;;;;;18.21;100.00;100859.13;2509070;23;20157;-68
2023/08/07 03:29:13;;;;;;;4.43;3.53;;;;;;;18.13;100.00;100835.53;2496449;23;20674;-68
2023/08/07 03:30:14;;;;;;;5.03;3.80;;;;;;;18.18;100.00;100860.13;2495943;23;20160;-68
2023/08/07 03:31:15;;;;;;;4.40;3.70;;;;;;;18.17;100.00;100866.94;2508651;23;20215;-68
2023/08/07 03:32:16;;;;;;;5.13;3.50;;;;;;;18.13;100.00;100859.97;2509022;23;20204;-68
2023/08/07 03:33:16;;;;;;;3.67;3.17;;;;;;;18.30;100.00;100856.28;2509071;23;20157;-68
2023/08/07 03:34:17;;;;;;;3.43;3.13;;;;;;;18.33;100.00;100848.97;2508815;23;20147;-69
2023/08/07 03:35:17;;;;;;;3.73;3.20;;;;;;;17.27;100.00;100700.13;2509111;23;20610;-68
2023/08/07 03:36:17;;;;;;;3.90;3.60;;;;;;;18.27;100.00;100855.19;2508284;23;20158;-68
2023/08/07 03:37:18;;;;;;;3.70;3.30;;;;;;;18.31;100.00;100845.84;2508046;23;20163;-68
2023/08/07 03:38:18;;;;;;;4.73;3.10;;;;;;;18.31;100.00;100846.59;2508937;23;20240;-69
2023/08/07 03:39:19;;;;;;;4.87;3.50;;;;;;;18.34;100.00;100861.72;2509000;23;20164;-69
2023/08/07 03:40:19;;;;;;;4.57;3.43;;;;;;;18.27;100.00;100852.41;2508532;23;20151;-68
2023/08/07 03:41:20;;;;;;;3.90;3.30;;;;;;;18.34;100.00;100858.91;2508841;23;20157;-69
2023/08/07 03:42:20;;;;;;;3.90;3.27;;;;;;;18.34;100.00;100875.75;2509011;23;20571;-69
2023/08/07 03:43:20;;;;;;;3.60;3.30;;;;;;;18.35;100.00;100864.06;2509032;23;20757;-68
2023/08/07 03:44:21;;;;;;;4.33;3.23;;;;;;;18.36;100.00;100871.22;2509066;23;20674;-69
2023/08/07 03:45:21;;;;;;;3.70;3.33;;;;;;;18.41;100.00;100862.13;2509094;23;20214;-68
2023/08/07 03:46:22;;;;;;;3.63;3.13;;;;;;;17.49;100.00;100713.88;2508595;23;20570;-68
2023/08/07 03:47:22;;;;;;;3.73;3.30;;;;;;;18.50;100.00;100858.47;2508684;23;20159;-69
2023/08/07 03:48:23;;;;;;;3.77;3.30;;;;;;;18.51;100.00;100865.63;2508757;23;20156;-68
2023/08/07 03:49:23;;;;;;;3.97;3.07;;;;;;;18.57;100.00;100866.53;2509161;23;20158;-69
2023/08/07 03:50:23;;;;;;;4.67;3.03;;;;;;;18.59;100.00;100864.00;2507710;23;20234;-69
2023/08/07 03:51:24;;;;;;;3.20;2.90;;;;;;;18.63;100.00;100867.41;2508605;23;20717;-69
2023/08/07 03:52:24;;;;;;;3.47;2.97;;;;;;;18.64;100.00;100863.34;2508852;23;20525;-69
2023/08/07 03:53:25;;;;;;;3.80;3.40;;;;;;;18.66;100.00;100867.22;2509002;23;20493;-69
2023/08/07 03:54:25;;;;;;;3.43;3.10;;;;;;;18.74;100.00;100870.44;2495935;23;20164;-69
2023/08/07 03:55:25;;;;;;;4.97;3.30;;;;;;;18.73;100.00;100875.25;2496301;23;20530;-69
2023/08/07 03:56:26;;;;;;;4.43;3.50;;;;;;;18.26;100.00;100812.84;2508495;23;20206;-69
2023/08/07 03:57:27;;;;;;;4.97;3.40;;;;;;;18.74;100.00;100871.22;2508555;23;20238;-69
2023/08/07 03:58:27;;;;;;;6.17;3.60;;;;;;;18.73;100.00;100872.44;2508959;23;20498;-68
2023/08/07 03:59:27;;;;;;;5.40;3.50;;;;;;;18.59;100.00;100856.38;2509087;23;20179;-69
2023/08/07 04:00:28;;;;;;;3.90;3.50;;;;;;;18.80;100.00;100876.91;2508164;23;20215;-69
2023/08/07 04:01:28;;;;;;;4.50;3.13;;;;;;;18.83;100.00;100878.75;2509106;23;20178;-69
2023/08/07 04:02:30;;;;;;;5.80;3.43;;;;;;;18.83;100.00;100876.72;2508834;23;20159;-69
2023/08/07 04:03:30;;;;;;;5.73;3.30;;;;;;;18.80;100.00;100880.50;2508892;23;20165;-69
2023/08/07 04:04:30;;;;;;;3.93;3.20;;;;;;;18.83;100.00;100873.16;2508231;23;20924;-69
2023/08/07 04:05:33;;;;;;;4.97;3.17;;;;;;;18.88;100.00;100873.22;2508450;23;20155;-69
2023/08/07 04:06:34;;;;;;;5.00;3.50;;;;;;;18.93;100.00;100875.38;2508597;23;20244;-69
2023/08/07 04:07:34;;;;;;;5.27;3.20;;;;;;;18.97;100.00;100875.97;2508499;23;20380;-69
2023/08/07 04:08:34;;;;;;;4.30;3.33;;;;;;;18.69;100.00;100831.78;2508863;23;20165;-69
2023/08/07 04:09:35;;;;;;;3.77;3.27;;;;;;;18.98;100.00;100880.31;2509023;23;20158;-69
2023/08/07 04:10:35;;;;;;;3.40;3.10;;;;;;;19.00;100.00;100880.63;2508198;23;20185;-69
2023/08/07 04:11:36;;;;;;;5.53;3.67;;;;;;;18.99;100.00;100879.03;2508740;23;20238;-69
2023/08/07 04:12:36;;;;;;;4.30;3.40;;;;;;;18.97;100.00;100883.59;2508824;23;20162;-69
2023/08/07 04:13:37;;;;;;;4.13;3.60;;;;;;;19.05;100.00;100887.59;2508956;23;20155;-68
2023/08/07 04:14:37;;;;;;;4.43;3.33;;;;;;;19.00;100.00;100877.81;2508557;23;20572;-68
2023/08/07 04:15:38;;;;;;;5.63;3.50;;;;;;;18.94;100.00;100867.72;2508899;23;20159;-68
2023/08/07 04:16:38;;;;;;;4.00;3.60;;;;;;;19.01;100.00;100872.94;2508514;23;20185;-69
2023/08/07 04:17:39;;;;;;;3.70;3.37;;;;;;;19.03;100.00;100878.88;2508595;23;20153;-68
2023/08/07 04:18:39;;;;;;;4.53;3.43;;;;;;;19.07;100.00;100877.41;2508429;23;20595;-68
2023/08/07 04:19:39;;;;;;;4.93;3.97;;;;;;;18.95;100.00;100864.44;2508931;23;20250;-68
2023/08/07 04:20:40;;;;;;;5.00;3.70;;;;;;;17.99;100.00;100712.88;2508137;23;20163;-69
2023/08/07 04:21:40;;;;;;;3.87;3.50;;;;;;;19.04;100.00;100872.00;2507560;23;20162;-68
2023/08/07 04:22:41;;;;;;;3.80;3.40;;;;;;;19.00;100.00;100866.56;2507378;23;20171;-68
2023/08/07 04:23:41;;;;;;;4.73;3.70;;;;;;;19.03;100.00;100862.03;2507755;23;20160;-68
2023/08/07 04:24:41;;;;;;;3.77;3.37;;;;;;;18.99;100.00;100858.63;2507557;23;20598;-68
2023/08/07 04:25:42;;;;;;;6.10;3.73;;;;;;;18.94;100.00;100856.50;2507605;23;20641;-68
2023/08/07 04:26:42;;;;;;;4.27;3.60;;;;;;;18.94;100.00;100853.69;2501118;23;20770;-67
2023/08/07 04:27:43;;;;;;;5.17;3.30;;;;;;;18.95;100.00;100849.63;2507608;23;20156;-67
2023/08/07 04:28:43;;;;;;;4.80;3.57;;;;;;;18.90;100.00;100848.28;2508235;23;20166;-68
2023/08/07 04:29:44;;;;;;;4.13;3.67;;;;;;;18.73;100.00;100821.16;2508625;23;20160;-68
2023/08/07 04:30:45;;;;;;;5.60;3.40;;;;;;;18.98;100.00;100865.50;2507571;23;20419;-68
2023/08/07 04:31:45;;;;;;;4.60;3.40;;;;;;;18.36;100.00;100753.38;2508353;23;20158;-68
2023/08/07 04:32:46;;;;;;;5.17;3.57;;;;;;;19.04;100.00;100846.72;2508396;23;20386;-68
2023/08/07 04:33:47;;;;;;;3.70;3.40;;;;;;;18.95;100.00;100847.59;2507569;23;20158;-68
2023/08/07 04:34:47;;;;;;;5.20;3.53;;;;;;;19.01;100.00;100856.09;2508199;23;20152;-68
2023/08/07 04:35:47;;;;;;;3.90;3.50;;;;;;;19.06;100.00;100849.81;2508420;23;20291;-68
2023/08/07 04:36:50;;;;;;;4.47;3.33;;;;;;;19.10;100.00;100856.00;2505782;23;20238;-68
2023/08/07 04:37:50;;;;;;;5.27;3.43;;;;;;;18.85;100.00;100815.25;2507986;23;20165;-68
2023/08/07 04:38:51;;;;;;;4.67;3.50;;;;;;;19.15;100.00;100855.31;2508285;23;20394;-68
2023/08/07 04:39:51;;;;;;;6.47;3.23;;;;;;;19.22;100.00;100854.97;2508465;23;20235;-68
2023/08/07 04:40:52;;;;;;;4.10;3.70;;;;;;;19.26;100.00;100856.31;2507591;23;20507;-67
2023/08/07 04:41:52;;;;;;;3.73;3.40;;;;;;;18.75;100.00;100770.91;2508625;23;20179;-68